Time;durP1;ratioP1;P1;durP2;ratioP2;P2;SDS_P1;SDS_P2;PMS_P1;PMS_P2;Temp;Humidity;BMP_temperature;BMP_pressure;BME280_temperature;BME280_humidity;BME280_pressure;Samples;Min_cycle;Max_cycle;Signal;HPM_P1;HPM_P2
2023/10/05 00:01:27;;;;;;;;;;;20.20;1.00;;;;;;4934710;29;19955;-55
2023/10/05 00:03:54;;;;;;;;;;;20.20;1.00;;;;;;4935061;29;19950;-55
2023/10/05 00:06:24;;;;;;;;;;;20.20;1.00;;;;;;5378835;23;20979;31
2023/10/05 00:08:52;;;;;;;;;;;20.20;1.00;;;;;;4898899;29;19966;-56
2023/10/05 00:11:23;;;;;;;;;;;20.10;1.00;;;;;;4906510;29;19935;-56
2023/10/05 00:13:53;;;;;;;;;;;20.10;1.00;;;;;;4915963;29;20279;-56
2023/10/05 00:16:21;;;;;;;;;;;20.10;1.00;;;;;;4907985;29;20017;-55
2023/10/05 00:18:51;;;;;;;;;;;20.10;1.00;;;;;;4915881;29;19927;-53
2023/10/05 00:21:19;;;;;;;;;;;20.10;1.00;;;;;;4915595;29;19949;-53
2023/10/05 00:23:50;;;;;;;;;;;20.10;1.00;;;;;;4910292;29;19934;-53
2023/10/05 00:26:20;;;;;;;;;;;20.10;1.00;;;;;;4896852;29;19971;-56
2023/10/05 00:31:29;;;;;;;;;;;20.10;1.00;;;;;;4926974;29;19927;-56
2023/10/05 00:33:56;;;;;;;;;;;20.10;1.00;;;;;;4903601;29;19928;-52
2023/10/05 00:36:33;;;;;;;;;;;20.10;1.00;;;;;;4907169;29;19927;-58
2023/10/05 00:39:02;;;;;;;;;;;20.10;1.00;;;;;;5136911;23;20920;-56
2023/10/05 00:41:28;;;;;;;;;;;20.10;1.00;;;;;;4898250;29;19935;-57
2023/10/05 00:43:55;;;;;;;;;;;20.10;1.00;;;;;;4915807;29;19934;-56
2023/10/05 00:46:23;;;;;;;;;;;20.10;1.00;;;;;;4898800;29;19934;-56
2023/10/05 00:49:04;;;;;;;;;;;20.10;1.00;;;;;;4898561;29;19954;-55
2023/10/05 00:51:33;;;;;;;;;;;20.10;1.00;;;;;;4907898;29;19982;-56
2023/10/05 00:54:05;;;;;;;;;;;20.10;1.00;;;;;;4915704;29;19934;-57
2023/10/05 00:56:34;;;;;;;;;;;20.10;1.00;;;;;;4906811;29;19959;-57
2023/10/05 00:59:06;;;;;;;;;;;20.10;1.00;;;;;;4930098;29;20301;-53
2023/10/05 01:01:58;;;;;;;;;;;20.10;1.00;;;;;;4908115;29;20037;-53
2023/10/05 01:04:28;;;;;;;;;;;20.10;1.00;;;;;;4917053;29;19933;-57
2023/10/05 01:06:56;;;;;;;;;;;20.10;1.00;;;;;;4902240;29;19927;-57
2023/10/05 01:12:20;;;;;;;;;;;20.10;1.00;;;;;;4967902;23;19927;-52
2023/10/05 01:14:53;;;;;;;;;;;20.10;1.00;;;;;;4938155;29;19927;-57
2023/10/05 01:17:20;;;;;;;;;;;20.10;1.00;;;;;;4937767;29;20292;-56
2023/10/05 01:19:53;;;;;;;;;;;20.10;1.00;;;;;;4937812;29;19927;-54
2023/10/05 01:22:22;;;;;;;;;;;20.10;1.00;;;;;;4937958;29;20344;-56
2023/10/05 01:24:49;;;;;;;;;;;20.10;1.00;;;;;;4937963;29;20353;-56
2023/10/05 01:27:16;;;;;;;;;;;20.10;1.00;;;;;;4937782;29;19927;-56
2023/10/05 01:29:43;;;;;;;;;;;20.10;1.00;;;;;;4937647;29;20017;-54
2023/10/05 01:32:15;;;;;;;;;;;20.00;1.00;;;;;;4920248;29;19931;-57
2023/10/05 01:34:42;;;;;;;;;;;20.00;1.00;;;;;;4937856;29;19927;-55
2023/10/05 01:37:10;;;;;;;;;;;20.00;1.00;;;;;;4920459;29;19927;-53
2023/10/05 01:39:43;;;;;;;;;;;20.00;1.00;;;;;;4920322;29;19927;-56
2023/10/05 01:42:11;;;;;;;;;;;20.00;1.00;;;;;;4919653;29;20294;-55
2023/10/05 01:44:47;;;;;;;;;;;20.00;1.00;;;;;;4937612;29;19934;-56
2023/10/05 01:47:17;;;;;;;;;;;20.00;1.00;;;;;;4937474;29;20274;-58
2023/10/05 01:49:49;;;;;;;;;;;20.00;1.00;;;;;;4920226;29;19926;-55
2023/10/05 01:52:16;;;;;;;;;;;20.00;1.00;;;;;;4920218;29;20392;-56
2023/10/05 01:54:44;;;;;;;;;;;20.00;1.00;;;;;;4937413;29;19931;-56
2023/10/05 01:57:13;;;;;;;;;;;20.00;1.00;;;;;;4920267;29;19966;-55
2023/10/05 01:59:40;;;;;;;;;;;20.00;1.00;;;;;;4919956;29;19975;-56
2023/10/05 02:02:11;;;;;;;;;;;20.00;1.00;;;;;;4920161;29;19926;-56
2023/10/05 02:04:42;;;;;;;;;;;20.00;1.00;;;;;;4929528;29;19941;-56
2023/10/05 02:07:10;;;;;;;;;;;20.00;1.00;;;;;;4920159;29;20448;-56
2023/10/05 02:09:38;;;;;;;;;;;20.00;1.00;;;;;;4919707;29;20022;-56
2023/10/05 02:14:54;;;;;;;;;;;20.00;1.00;;;;;;5393446;23;19930;-55
2023/10/05 02:17:21;;;;;;;;;;;20.00;1.00;;;;;;4945333;29;19933;-56
2023/10/05 02:19:48;;;;;;;;;;;20.00;1.00;;;;;;4938692;29;19926;-53
2023/10/05 02:22:16;;;;;;;;;;;20.00;1.00;;;;;;4955923;29;19927;-56
2023/10/05 02:24:43;;;;;;;;;;;20.00;1.00;;;;;;4944196;29;20295;-55
2023/10/05 02:27:09;;;;;;;;;;;20.00;1.00;;;;;;4919979;29;20013;-57
2023/10/05 02:29:40;;;;;;;;;;;20.00;1.00;;;;;;4936583;29;19927;-56
2023/10/05 02:32:10;;;;;;;;;;;20.00;1.00;;;;;;4936554;29;20266;-57
2023/10/05 02:37:28;;;;;;;;;;;19.90;1.00;;;;;;4936372;29;20377;-57
2023/10/05 02:39:57;;;;;;;;;;;20.00;1.00;;;;;;4936362;29;20393;-56
2023/10/05 02:42:25;;;;;;;;;;;20.00;1.00;;;;;;4928374;29;19950;-55
2023/10/05 02:47:51;;;;;;;;;;;20.00;1.00;;;;;;5255419;23;19926;-56
2023/10/05 02:50:19;;;;;;;;;;;20.00;1.00;;;;;;4935903;29;19933;-53
2023/10/05 02:52:46;;;;;;;;;;;20.00;1.00;;;;;;4924616;29;20444;-56
2023/10/05 02:55:14;;;;;;;;;;;19.90;1.00;;;;;;4900448;29;19975;-56
2023/10/05 02:57:43;;;;;;;;;;;20.00;1.00;;;;;;4909393;29;19933;-57
2023/10/05 03:00:11;;;;;;;;;;;20.00;1.00;;;;;;4900017;29;20022;-57
2023/10/05 03:02:45;;;;;;;;;;;20.00;1.00;;;;;;4899990;29;20292;-57
2023/10/05 03:05:12;;;;;;;;;;;19.90;1.00;;;;;;4917667;29;19927;-57
2023/10/05 03:07:41;;;;;;;;;;;19.90;1.00;;;;;;4916913;29;20062;-57
2023/10/05 03:10:13;;;;;;;;;;;19.90;1.00;;;;;;4900007;29;20320;-57
2023/10/05 03:12:40;;;;;;;;;;;19.90;1.00;;;;;;4899994;29;19954;-55
2023/10/05 03:15:08;;;;;;;;;;;19.90;1.00;;;;;;4898489;29;19931;-56
2023/10/05 03:20:35;;;;;;;;;;;19.90;1.00;;;;;;5031803;23;19934;-56
2023/10/05 03:23:03;;;;;;;;;;;19.90;1.00;;;;;;4923915;29;19931;-57
2023/10/05 03:25:33;;;;;;;;;;;19.90;1.00;;;;;;4950374;29;19933;-57
2023/10/05 03:28:01;;;;;;;;;;;19.90;1.00;;;;;;4918526;29;19961;-57
2023/10/05 03:30:30;;;;;;;;;;;19.90;1.00;;;;;;4949919;29;20029;-57
2023/10/05 03:33:00;;;;;;;;;;;19.90;1.00;;;;;;4918520;29;20319;-54
2023/10/05 03:35:32;;;;;;;;;;;19.90;1.00;;;;;;4918271;29;20033;-58
2023/10/05 03:38:00;;;;;;;;;;;19.90;1.00;;;;;;4940664;29;19926;-56
2023/10/05 03:40:35;;;;;;;;;;;19.90;1.00;;;;;;4928217;29;20337;-57
2023/10/05 03:43:04;;;;;;;;;;;19.90;1.00;;;;;;4953318;29;19930;-57
2023/10/05 03:45:34;;;;;;;;;;;19.90;1.00;;;;;;4937032;29;20333;-58
2023/10/05 03:48:01;;;;;;;;;;;19.90;1.00;;;;;;4937397;29;20341;-57
2023/10/05 03:53:25;;;;;;;;;;;19.90;1.00;;;;;;5033222;23;19926;-56
2023/10/05 03:55:52;;;;;;;;;;;19.90;1.00;;;;;;4937113;29;19937;-55
2023/10/05 03:58:20;;;;;;;;;;;19.90;1.00;;;;;;4937207;29;19930;-56
2023/10/05 04:00:49;;;;;;;;;;;19.90;1.00;;;;;;4910091;29;19975;-55
2023/10/05 04:03:19;;;;;;;;;;;19.90;1.00;;;;;;4932943;29;19933;-56
2023/10/05 04:05:46;;;;;;;;;;;19.90;1.00;;;;;;4936770;29;19930;-55
2023/10/05 04:08:16;;;;;;;;;;;19.90;1.00;;;;;;4937166;29;19926;-57
2023/10/05 04:10:46;;;;;;;;;;;19.80;1.00;;;;;;4953674;28;19942;-57
2023/10/05 04:13:15;;;;;;;;;;;19.90;1.00;;;;;;4939473;29;19926;-54
2023/10/05 04:15:42;;;;;;;;;;;19.90;1.00;;;;;;4934824;29;20021;-54
2023/10/05 04:18:11;;;;;;;;;;;19.90;1.00;;;;;;4935103;29;19933;-54
2023/10/05 04:20:38;;;;;;;;;;;19.90;1.00;;;;;;4934387;29;20317;-57
2023/10/05 04:26:01;;;;;;;;;;;19.90;1.00;;;;;;5031113;23;20020;-57
2023/10/05 04:28:35;;;;;;;;;;;19.90;1.00;;;;;;4953812;29;20447;-57
2023/10/05 04:31:08;;;;;;;;;;;19.90;1.00;;;;;;4953699;29;20273;-56
2023/10/05 04:33:36;;;;;;;;;;;19.80;1.00;;;;;;4953699;29;19958;-55
2023/10/05 04:36:04;;;;;;;;;;;19.80;1.00;;;;;;4954076;29;19985;-57
2023/10/05 04:38:32;;;;;;;;;;;19.80;1.00;;;;;;4954067;28;20432;-57
2023/10/05 04:40:58;;;;;;;;;;;19.90;1.00;;;;;;4957482;29;20009;-57
2023/10/05 04:43:25;;;;;;;;;;;19.80;1.00;;;;;;4941924;29;19934;-57
2023/10/05 04:45:52;;;;;;;;;;;19.80;1.00;;;;;;4913997;29;19926;-57
2023/10/05 04:48:19;;;;;;;;;;;19.80;1.00;;;;;;4938389;29;19934;-57
2023/10/05 04:50:49;;;;;;;;;;;19.80;1.00;;;;;;4938290;29;19934;-57
2023/10/05 04:53:17;;;;;;;;;;;19.80;1.00;;;;;;4938433;29;19927;-57
2023/10/05 04:55:44;;;;;;;;;;;19.80;1.00;;;;;;4938255;29;19933;-57
2023/10/05 04:58:30;;;;;;;;;;;19.80;1.00;;;;;;5030973;23;19966;-56
2023/10/05 05:03:47;;;;;;;;;;;19.80;1.00;;;;;;4938154;29;19934;-57
2023/10/05 05:06:14;;;;;;;;;;;19.80;1.00;;;;;;4938167;29;20405;-56
2023/10/05 05:08:41;;;;;;;;;;;19.80;1.00;;;;;;4937996;29;20389;-56
2023/10/05 05:11:18;;;;;;;;;;;19.80;1.00;;;;;;4937872;29;20411;-57
2023/10/05 05:13:46;;;;;;;;;;;19.80;1.00;;;;;;4948127;29;19930;-54
2023/10/05 05:16:14;;;;;;;;;;;19.80;1.00;;;;;;4957148;29;19926;-57
2023/10/05 05:18:42;;;;;;;;;;;19.80;1.00;;;;;;4956849;29;19926;-57
2023/10/05 05:21:10;;;;;;;;;;;19.80;1.00;;;;;;4939587;29;19927;-55
2023/10/05 05:23:37;;;;;;;;;;;19.80;1.00;;;;;;4956870;29;19931;-56
2023/10/05 05:26:08;;;;;;;;;;;19.80;1.00;;;;;;4957075;29;19981;-57
2023/10/05 05:28:37;;;;;;;;;;;19.80;1.00;;;;;;4992216;23;19932;-55
2023/10/05 05:31:06;;;;;;;;;;;19.80;1.00;;;;;;4956675;28;20392;-56
2023/10/05 05:33:38;;;;;;;;;;;19.80;1.00;;;;;;4956803;29;19977;-57
2023/10/05 05:36:06;;;;;;;;;;;19.80;1.00;;;;;;4956824;29;19927;-57
2023/10/05 05:38:33;;;;;;;;;;;19.80;1.00;;;;;;4956716;29;20273;-57
2023/10/05 05:41:01;;;;;;;;;;;19.80;1.00;;;;;;4956456;28;19926;-52
2023/10/05 05:43:29;;;;;;;;;;;19.80;1.00;;;;;;4956580;29;19930;-56
2023/10/05 05:45:58;;;;;;;;;;;19.80;1.00;;;;;;4956648;29;19927;-57
2023/10/05 05:48:26;;;;;;;;;;;19.80;1.00;;;;;;4941529;29;19927;-57
2023/10/05 05:50:54;;;;;;;;;;;19.80;1.00;;;;;;4935869;29;20422;-57
2023/10/05 05:53:21;;;;;;;;;;;19.70;1.00;;;;;;4937497;29;19927;-55
2023/10/05 05:55:53;;;;;;;;;;;19.80;1.00;;;;;;4955100;29;19926;-54
2023/10/05 05:58:20;;;;;;;;;;;19.80;1.00;;;;;;4957144;29;19978;-57
2023/10/05 06:00:47;;;;;;;;;;;19.80;1.00;;;;;;4937565;29;19937;-52
2023/10/05 06:03:14;;;;;;;;;;;19.80;1.00;;;;;;4937254;29;19930;-53
2023/10/05 06:05:41;;;;;;;;;;;19.80;1.00;;;;;;4936325;29;19974;-53
2023/10/05 06:08:09;;;;;;;;;;;19.80;1.00;;;;;;4936848;29;20033;-57
2023/10/05 06:10:36;;;;;;;;;;;19.70;1.00;;;;;;4935354;29;19931;-56
2023/10/05 06:13:05;;;;;;;;;;;19.70;1.00;;;;;;4936808;29;19931;-56
2023/10/05 06:15:32;;;;;;;;;;;19.70;1.00;;;;;;4937078;29;19926;-55
2023/10/05 06:18:03;;;;;;;;;;;19.70;1.00;;;;;;4936489;29;20355;-57
2023/10/05 06:20:31;;;;;;;;;;;19.70;1.00;;;;;;4936516;29;19927;-53
2023/10/05 06:23:00;;;;;;;;;;;19.70;1.00;;;;;;4936624;29;19933;-55
2023/10/05 06:25:27;;;;;;;;;;;19.70;1.00;;;;;;4936878;29;19953;-52
2023/10/05 06:30:50;;;;;;;;;;;19.70;1.00;;;;;;4977563;23;20377;-55
2023/10/05 06:33:17;;;;;;;;;;;19.70;1.00;;;;;;4936640;29;20023;-55
2023/10/05 06:35:44;;;;;;;;;;;19.70;1.00;;;;;;4919752;29;19934;-55
2023/10/05 06:38:10;;;;;;;;;;;19.70;1.00;;;;;;4929866;29;19931;-56
2023/10/05 06:40:37;;;;;;;;;;;19.70;1.00;;;;;;4936110;29;20397;-54
2023/10/05 06:43:07;;;;;;;;;;;19.70;1.00;;;;;;4936401;29;20021;-54
2023/10/05 06:45:37;;;;;;;;;;;19.70;1.00;;;;;;4919573;29;20337;-56
2023/10/05 06:48:04;;;;;;;;;;;19.70;1.00;;;;;;4936202;29;20304;-57
2023/10/05 06:50:31;;;;;;;;;;;19.70;1.00;;;;;;4935918;29;19927;-57
2023/10/05 06:52:58;;;;;;;;;;;19.70;1.00;;;;;;4933424;29;19931;-54
2023/10/05 06:55:25;;;;;;;;;;;19.70;1.00;;;;;;4917417;29;20407;-57
2023/10/05 06:57:52;;;;;;;;;;;19.70;1.00;;;;;;4916983;29;19927;-57
2023/10/05 07:03:22;;;;;;;;;;;19.70;1.00;;;;;;5112196;23;20338;-55
2023/10/05 07:05:49;;;;;;;;;;;19.70;1.00;;;;;;4916930;29;20318;-55
2023/10/05 07:08:16;;;;;;;;;;;19.70;1.00;;;;;;4921977;29;19997;-54
2023/10/05 07:10:42;;;;;;;;;;;19.70;1.00;;;;;;4935452;29;19930;-55
2023/10/05 07:13:09;;;;;;;;;;;19.70;1.00;;;;;;4923961;29;20422;-55
2023/10/05 07:15:36;;;;;;;;;;;19.70;1.00;;;;;;4924488;29;19926;-57
2023/10/05 07:18:03;;;;;;;;;;;19.70;1.00;;;;;;4932499;29;19931;-55
2023/10/05 07:20:30;;;;;;;;;;;19.70;1.00;;;;;;4930929;29;19933;-57
2023/10/05 07:23:00;;;;;;;;;;;19.70;1.00;;;;;;4935951;29;19990;-54
2023/10/05 07:25:27;;;;;;;;;;;19.70;1.00;;;;;;4935717;29;20093;-57
2023/10/05 07:27:53;;;;;;;;;;;19.70;1.00;;;;;;4935370;29;20296;-57
2023/10/05 07:30:20;;;;;;;;;;;19.70;1.00;;;;;;4935443;29;19927;-56
2023/10/05 07:32:48;;;;;;;;;;;19.70;1.00;;;;;;4918903;29;20381;-57
2023/10/05 07:35:50;;;;;;;;;;;19.70;1.00;;;;;;4896446;29;19928;-57
2023/10/05 07:38:17;;;;;;;;;;;19.70;1.00;;;;;;4897675;29;20020;-57
2023/10/05 07:40:44;;;;;;;;;;;19.70;1.00;;;;;;4897757;29;19927;-56
2023/10/05 07:43:11;;;;;;;;;;;19.70;1.00;;;;;;4898045;29;19934;-52
2023/10/05 07:45:38;;;;;;;;;;;19.70;1.00;;;;;;4897703;29;19928;-54
2023/10/05 07:48:06;;;;;;;;;;;19.70;1.00;;;;;;4897554;29;19931;-56
2023/10/05 07:50:34;;;;;;;;;;;19.70;1.00;;;;;;4904128;29;19927;-54
2023/10/05 07:53:00;;;;;;;;;;;19.70;1.00;;;;;;4916305;29;20405;-55
2023/10/05 07:55:27;;;;;;;;;;;19.70;1.00;;;;;;4916194;29;19927;-55
2023/10/05 07:57:54;;;;;;;;;;;19.70;1.00;;;;;;4915979;29;19927;-55
2023/10/05 08:00:21;;;;;;;;;;;19.70;1.00;;;;;;4915536;29;20413;-55
2023/10/05 08:02:48;;;;;;;;;;;19.70;1.00;;;;;;4915951;29;19933;-54
2023/10/05 08:05:18;;;;;;;;;;;19.70;1.00;;;;;;4993005;23;19982;-55
2023/10/05 08:07:45;;;;;;;;;;;19.70;1.00;;;;;;4934930;29;19966;-55
2023/10/05 08:10:19;;;;;;;;;;;19.70;1.00;;;;;;4934906;29;20017;-57
2023/10/05 08:12:48;;;;;;;;;;;19.70;1.00;;;;;;4934564;29;19927;-55
2023/10/05 08:15:18;;;;;;;;;;;19.70;1.00;;;;;;4934639;29;19942;-54
2023/10/05 08:17:47;;;;;;;;;;;19.70;1.00;;;;;;4934766;29;19950;-53
2023/10/05 08:20:17;;;;;;;;;;;19.70;1.00;;;;;;4934528;29;19962;-53
2023/10/05 08:22:50;;;;;;;;;;;19.70;1.00;;;;;;4934835;29;20380;-55
2023/10/05 08:25:18;;;;;;;;;;;19.70;1.00;;;;;;4935091;29;20317;-56
2023/10/05 08:27:45;;;;;;;;;;;19.70;1.00;;;;;;4934935;29;20451;-57
2023/10/05 08:30:14;;;;;;;;;;;19.70;1.00;;;;;;4934424;29;20452;-55
2023/10/05 08:32:41;;;;;;;;;;;19.70;1.00;;;;;;4934832;29;19970;-53
2023/10/05 08:35:15;;;;;;;;;;;19.70;1.00;;;;;;4935281;29;19927;-56
2023/10/05 08:37:42;;;;;;;;;;;19.70;1.00;;;;;;4934837;29;20297;-54
2023/10/05 08:43:08;;;;;;;;;;;19.70;1.00;;;;;;4934371;29;19942;-57
2023/10/05 08:45:51;;;;;;;;;;;19.70;1.00;;;;;;4934774;29;19927;-56
2023/10/05 08:48:57;;;;;;;;;;;19.70;1.00;;;;;;4934753;29;19927;-53
2023/10/05 08:51:16;;;;;;;;;;;19.70;1.00;;;;;;4930328;29;19927;-52
2023/10/05 08:53:48;;;;;;;;;;;19.70;1.00;;;;;;4934623;29;20003;-57
2023/10/05 08:56:16;;;;;;;;;;;19.70;1.00;;;;;;4934591;29;19974;-55
2023/10/05 08:58:47;;;;;;;;;;;19.70;1.00;;;;;;4934510;29;19962;-55
2023/10/05 09:01:20;;;;;;;;;;;19.70;1.00;;;;;;4919289;29;19934;-56
2023/10/05 09:03:53;;;;;;;;;;;19.70;1.00;;;;;;4934244;29;19930;-55
2023/10/05 09:09:18;;;;;;;;;;;19.70;1.00;;;;;;4837150;29;20387;-55
2023/10/05 09:11:44;;;;;;;;;;;19.70;1.00;;;;;;4840894;29;19971;-54
2023/10/05 09:14:19;;;;;;;;;;;19.80;1.00;;;;;;4840912;29;20015;-52
2023/10/05 09:16:47;;;;;;;;;;;19.70;1.00;;;;;;4840987;29;19935;-56
2023/10/05 09:19:24;;;;;;;;;;;19.70;1.00;;;;;;4837657;29;20407;-54
2023/10/05 09:22:10;;;;;;;;;;;19.80;1.00;;;;;;4837582;29;19940;-57
2023/10/05 09:24:42;;;;;;;;;;;19.80;1.00;;;;;;4841550;29;20348;-55
2023/10/05 09:27:19;;;;;;;;;;;19.80;1.00;;;;;;4844075;29;20022;-55
2023/10/05 09:29:47;;;;;;;;;;;19.70;1.00;;;;;;4844221;29;19928;-57
2023/10/05 09:32:30;;;;;;;;;;;19.80;1.00;;;;;;4843791;29;19979;-56
2023/10/05 09:35:00;;;;;;;;;;;19.80;1.00;;;;;;4827564;29;20505;-57
2023/10/05 09:37:27;;;;;;;;;;;19.80;1.00;;;;;;4842847;29;19935;-57
2023/10/05 09:40:00;;;;;;;;;;;19.80;1.00;;;;;;5218564;23;19934;-53
2023/10/05 09:42:28;;;;;;;;;;;19.80;1.00;;;;;;4925050;29;20092;-57
2023/10/05 09:44:59;;;;;;;;;;;19.80;1.00;;;;;;4934492;29;20038;-55
2023/10/05 09:47:26;;;;;;;;;;;19.80;1.00;;;;;;4930948;29;19927;-53
2023/10/05 09:49:54;;;;;;;;;;;19.80;1.00;;;;;;4929158;29;20345;-54
2023/10/05 09:52:24;;;;;;;;;;;19.80;1.00;;;;;;4937257;29;19970;-57
2023/10/05 09:54:51;;;;;;;;;;;19.80;1.00;;;;;;4937469;29;19927;-56
2023/10/05 09:57:20;;;;;;;;;;;19.80;1.00;;;;;;4921735;29;19927;-57
2023/10/05 10:00:00;;;;;;;;;;;19.80;1.00;;;;;;4937222;29;19934;-57
2023/10/05 10:02:29;;;;;;;;;;;19.80;1.00;;;;;;4937442;29;19927;-55
2023/10/05 10:04:57;;;;;;;;;;;19.80;1.00;;;;;;4937666;29;19931;-56
2023/10/05 10:07:26;;;;;;;;;;;19.80;1.00;;;;;;4929264;29;20412;-56
2023/10/05 10:09:54;;;;;;;;;;;19.80;1.00;;;;;;4929202;29;19927;-55
2023/10/05 10:12:25;;;;;;;;;;;19.80;1.00;;;;;;5388075;23;20017;-55
2023/10/05 10:14:58;;;;;;;;;;;19.80;1.00;;;;;;4937390;29;19993;-55
2023/10/05 10:17:30;;;;;;;;;;;19.80;1.00;;;;;;4930537;29;19967;-56
2023/10/05 10:20:18;;;;;;;;;;;19.80;1.00;;;;;;4946170;29;19933;-56
2023/10/05 10:22:47;;;;;;;;;;;19.80;1.00;;;;;;4943844;29;19926;-57
2023/10/05 10:25:26;;;;;;;;;;;19.80;1.00;;;;;;4945688;29;19926;-57
2023/10/05 10:28:09;;;;;;;;;;;19.80;1.00;;;;;;4952843;29;19931;-54
2023/10/05 10:30:36;;;;;;;;;;;19.90;1.00;;;;;;4942347;29;20454;-58
2023/10/05 10:33:35;;;;;;;;;;;19.90;1.00;;;;;;4948162;29;19926;-56
2023/10/05 10:36:04;;;;;;;;;;;19.90;1.00;;;;;;4947840;28;20029;-56
2023/10/05 10:38:30;;;;;;;;;;;19.90;1.00;;;;;;4943634;29;19974;-56
2023/10/05 10:41:07;;;;;;;;;;;19.90;1.00;;;;;;4944569;29;20029;-57
2023/10/05 10:43:34;;;;;;;;;;;19.90;1.00;;;;;;5049091;23;19934;-61
2023/10/05 10:46:12;;;;;;;;;;;19.90;1.00;;;;;;4934360;29;19927;-56
2023/10/05 10:48:53;;;;;;;;;;;19.90;1.00;;;;;;4930739;29;19930;-51
2023/10/05 10:51:21;;;;;;;;;;;19.90;1.00;;;;;;4898696;29;19934;-54
2023/10/05 10:53:52;;;;;;;;;;;19.90;1.00;;;;;;4906232;29;20014;-54
2023/10/05 10:56:27;;;;;;;;;;;19.90;1.00;;;;;;4906200;29;20042;-53
2023/10/05 10:59:05;;;;;;;;;;;19.90;1.00;;;;;;4913347;29;19990;-52
2023/10/05 11:01:41;;;;;;;;;;;19.90;1.00;;;;;;4916890;29;19927;-56
2023/10/05 11:04:24;;;;;;;;;;;19.90;1.00;;;;;;4921020;29;19927;-57
2023/10/05 11:06:51;;;;;;;;;;;19.90;1.00;;;;;;4906307;29;19973;-57
2023/10/05 11:09:29;;;;;;;;;;;19.90;1.00;;;;;;4915503;29;19931;-50
2023/10/05 11:12:08;;;;;;;;;;;19.90;1.00;;;;;;4916899;29;20282;-51
2023/10/05 11:14:35;;;;;;;;;;;19.90;1.00;;;;;;5014832;23;20031;-52
2023/10/05 11:17:11;;;;;;;;;;;20.00;1.00;;;;;;4927334;29;19927;-50
2023/10/05 11:19:39;;;;;;;;;;;20.00;1.00;;;;;;4924250;29;19935;-51
2023/10/05 11:22:11;;;;;;;;;;;19.90;1.00;;;;;;4932107;29;19934;-52
2023/10/05 11:24:58;;;;;;;;;;;20.00;1.00;;;;;;4924573;29;20016;-52
2023/10/05 11:27:25;;;;;;;;;;;20.00;1.00;;;;;;4932269;29;19946;-54
2023/10/05 11:29:55;;;;;;;;;;;20.00;1.00;;;;;;4930929;29;19927;-50
2023/10/05 11:32:41;;;;;;;;;;;20.00;1.00;;;;;;4921445;29;19935;-50
2023/10/05 11:35:28;;;;;;;;;;;20.00;1.00;;;;;;4920079;29;20350;-51
2023/10/05 11:38:03;;;;;;;;;;;20.00;1.00;;;;;;4935630;29;20424;-50
2023/10/05 11:40:31;;;;;;;;;;;20.00;1.00;;;;;;4919795;29;19931;-50
2023/10/05 11:43:04;;;;;;;;;;;20.00;1.00;;;;;;4928166;29;19927;-56
2023/10/05 11:45:33;;;;;;;;;;;20.00;1.00;;;;;;4924005;28;20006;-54
2023/10/05 11:48:11;;;;;;;;;;;20.00;1.00;;;;;;4934941;29;20385;-54
2023/10/05 11:50:51;;;;;;;;;;;20.00;1.00;;;;;;4920434;29;19937;-55
2023/10/05 11:53:23;;;;;;;;;;;20.00;1.00;;;;;;4927464;29;20026;-51
2023/10/05 11:55:51;;;;;;;;;;;20.00;1.00;;;;;;4935441;29;19927;-52
2023/10/05 11:58:18;;;;;;;;;;;20.00;1.00;;;;;;4927273;29;19966;-51
2023/10/05 12:00:45;;;;;;;;;;;20.00;1.00;;;;;;4927049;29;19927;-54
2023/10/05 12:03:12;;;;;;;;;;;20.00;1.00;;;;;;4934899;29;20021;-52
2023/10/05 12:05:39;;;;;;;;;;;20.00;1.00;;;;;;4935210;29;20385;-52
2023/10/05 12:08:07;;;;;;;;;;;20.00;1.00;;;;;;4917846;29;19933;-50
2023/10/05 12:10:33;;;;;;;;;;;20.00;1.00;;;;;;4927055;29;19927;-51
2023/10/05 12:13:02;;;;;;;;;;;20.10;1.00;;;;;;4927059;29;19926;-50
2023/10/05 12:18:24;;;;;;;;;;;20.10;1.00;;;;;;5103344;23;1795798;-52
2023/10/05 12:20:51;;;;;;;;;;;20.10;1.00;;;;;;4934300;29;19966;-52
2023/10/05 12:23:18;;;;;;;;;;;20.10;1.00;;;;;;4934683;29;20411;-51
2023/10/05 12:25:45;;;;;;;;;;;20.10;1.00;;;;;;4934831;29;19927;-50
2023/10/05 12:28:12;;;;;;;;;;;20.10;1.00;;;;;;4917614;29;19927;-55
2023/10/05 12:30:39;;;;;;;;;;;20.10;1.00;;;;;;4922489;29;19927;-52
2023/10/05 12:33:09;;;;;;;;;;;20.10;1.00;;;;;;4915818;29;19933;-56
2023/10/05 12:35:36;;;;;;;;;;;20.10;1.00;;;;;;4919759;29;20303;-57
2023/10/05 12:38:06;;;;;;;;;;;20.10;1.00;;;;;;4934698;29;19931;-51
2023/10/05 12:40:34;;;;;;;;;;;20.10;1.00;;;;;;4911216;29;19942;-51
2023/10/05 12:43:01;;;;;;;;;;;20.10;1.00;;;;;;4934644;29;19950;-55
2023/10/05 12:45:43;;;;;;;;;;;20.10;1.00;;;;;;4914067;29;20013;-51
2023/10/05 12:51:15;;;;;;;;;;;20.20;1.00;;;;;;4878504;29;20412;-57
2023/10/05 12:53:42;;;;;;;;;;;20.10;1.00;;;;;;4882294;29;20300;-53
2023/10/05 12:56:08;;;;;;;;;;;20.20;1.00;;;;;;4881409;29;19971;-51
2023/10/05 12:58:35;;;;;;;;;;;20.20;1.00;;;;;;4885776;29;20378;-52
2023/10/05 13:01:12;;;;;;;;;;;20.20;1.00;;;;;;4888385;29;19980;-51
2023/10/05 13:03:39;;;;;;;;;;;20.20;1.00;;;;;;4893261;29;19928;-56
2023/10/05 13:06:10;;;;;;;;;;;20.20;1.00;;;;;;4900426;29;19927;-56
2023/10/05 13:08:38;;;;;;;;;;;20.20;1.00;;;;;;4884855;29;20310;-55
2023/10/05 13:11:04;;;;;;;;;;;20.20;1.00;;;;;;4893136;29;20402;-52
2023/10/05 13:13:31;;;;;;;;;;;20.20;1.00;;;;;;4899532;29;20421;-55
2023/10/05 13:15:58;;;;;;;;;;;20.20;1.00;;;;;;4900315;29;20027;-53
2023/10/05 13:18:25;;;;;;;;;;;20.20;1.00;;;;;;4892239;29;20026;-51
2023/10/05 13:23:41;;;;;;;;;;;20.20;1.00;;;;;;4978489;23;19926;-52
2023/10/05 13:26:08;;;;;;;;;;;20.20;1.00;;;;;;4937623;29;20030;-55
2023/10/05 13:28:35;;;;;;;;;;;20.20;1.00;;;;;;4926850;29;19974;-53
2023/10/05 13:31:06;;;;;;;;;;;20.20;1.00;;;;;;4918516;29;19975;-55
2023/10/05 13:33:48;;;;;;;;;;;20.20;1.00;;;;;;4905656;29;20275;-50
2023/10/05 13:36:14;;;;;;;;;;;20.30;1.00;;;;;;4918386;29;20390;-54
2023/10/05 13:38:43;;;;;;;;;;;20.30;1.00;;;;;;4918655;29;20026;-53
2023/10/05 13:41:18;;;;;;;;;;;20.30;1.00;;;;;;4918372;29;19927;-56
2023/10/05 13:43:47;;;;;;;;;;;20.20;1.00;;;;;;4905044;29;19965;-57
2023/10/05 13:46:16;;;;;;;;;;;20.30;1.00;;;;;;4918309;29;19927;-52
2023/10/05 13:48:43;;;;;;;;;;;20.30;1.00;;;;;;4918561;29;19927;-52
2023/10/05 13:51:11;;;;;;;;;;;20.30;1.00;;;;;;4918142;29;19934;-55
2023/10/05 13:53:39;;;;;;;;;;;20.30;1.00;;;;;;4944751;23;19927;-53
2023/10/05 13:56:06;;;;;;;;;;;20.30;1.00;;;;;;4937538;29;19927;-52
2023/10/05 13:58:32;;;;;;;;;;;20.30;1.00;;;;;;4937088;29;19952;-57
2023/10/05 14:01:01;;;;;;;;;;;20.30;1.00;;;;;;4937092;29;20041;-51
2023/10/05 14:03:31;;;;;;;;;;;20.30;1.00;;;;;;4936968;29;19934;-55
2023/10/05 14:06:04;;;;;;;;;;;20.30;1.00;;;;;;4937227;29;20017;-58
2023/10/05 14:08:31;;;;;;;;;;;20.30;1.00;;;;;;4937017;29;20070;-58
2023/10/05 14:10:59;;;;;;;;;;;20.30;1.00;;;;;;4936198;29;20316;-57
2023/10/05 14:13:26;;;;;;;;;;;20.30;1.00;;;;;;4936898;29;20020;-58
2023/10/05 14:15:52;;;;;;;;;;;20.40;1.00;;;;;;4937029;29;20296;-55
2023/10/05 14:18:19;;;;;;;;;;;20.40;1.00;;;;;;4936835;29;19934;-57
2023/10/05 14:20:47;;;;;;;;;;;20.40;1.00;;;;;;4936454;29;19927;-56
2023/10/05 14:23:14;;;;;;;;;;;20.30;1.00;;;;;;4936986;29;19931;-56
2023/10/05 14:25:42;;;;;;;;;;;20.40;1.00;;;;;;4932199;29;19926;-56
2023/10/05 14:28:09;;;;;;;;;;;20.40;1.00;;;;;;4936723;29;20345;-56
2023/10/05 14:30:38;;;;;;;;;;;20.40;1.00;;;;;;4936426;29;20305;-58
2023/10/05 14:33:07;;;;;;;;;;;20.40;1.00;;;;;;4936889;29;19966;-57
2023/10/05 14:35:34;;;;;;;;;;;20.40;1.00;;;;;;4936371;29;19930;-56
2023/10/05 14:38:00;;;;;;;;;;;20.40;1.00;;;;;;4936686;29;19927;-57
2023/10/05 14:40:30;;;;;;;;;;;20.40;1.00;;;;;;4936113;29;19934;-56
2023/10/05 14:43:01;;;;;;;;;;;20.40;1.00;;;;;;4936597;29;19989;-53
2023/10/05 14:45:28;;;;;;;;;;;20.40;1.00;;;;;;4936397;29;19982;-56
2023/10/05 14:48:01;;;;;;;;;;;20.40;1.00;;;;;;4914931;29;20041;-57
2023/10/05 14:50:28;;;;;;;;;;;20.40;1.00;;;;;;4933982;29;20397;-54
2023/10/05 14:52:55;;;;;;;;;;;20.40;1.00;;;;;;4936278;29;19927;-55
2023/10/05 14:55:22;;;;;;;;;;;20.40;1.00;;;;;;5042121;23;19927;-57
2023/10/05 14:57:51;;;;;;;;;;;20.40;1.00;;;;;;4936210;29;19974;-57
2023/10/05 15:00:18;;;;;;;;;;;20.50;1.00;;;;;;4935864;29;19927;-56
2023/10/05 15:02:45;;;;;;;;;;;20.40;1.00;;;;;;4935763;29;19953;-57
2023/10/05 15:05:13;;;;;;;;;;;20.50;1.00;;;;;;4919107;29;20057;-55
2023/10/05 15:07:40;;;;;;;;;;;20.50;1.00;;;;;;4936047;29;19927;-57
2023/10/05 15:10:15;;;;;;;;;;;20.40;1.00;;;;;;4935595;29;19934;-53
2023/10/05 15:12:44;;;;;;;;;;;20.50;1.00;;;;;;4935729;29;19946;-55
2023/10/05 15:15:12;;;;;;;;;;;20.50;1.00;;;;;;4935874;29;19926;-57
2023/10/05 15:17:38;;;;;;;;;;;20.40;1.00;;;;;;4935739;29;19934;-56
2023/10/05 15:20:10;;;;;;;;;;;20.50;1.00;;;;;;4935342;29;20025;-57
2023/10/05 15:22:38;;;;;;;;;;;20.50;1.00;;;;;;4935212;29;19937;-55
2023/10/05 15:28:01;;;;;;;;;;;20.50;1.00;;;;;;5162789;23;19927;-57
2023/10/05 15:30:28;;;;;;;;;;;20.50;1.00;;;;;;4962029;28;19933;-57
2023/10/05 15:32:54;;;;;;;;;;;20.50;1.00;;;;;;4962637;28;20021;-56
2023/10/05 15:35:22;;;;;;;;;;;20.50;1.00;;;;;;4954555;28;19926;-54